Terminal Aerodrome Forecast
Issued by NWS

Home | Current Version | Previous Version | Text Only | Print | Product List | Glossary On
Versions: 1 2 3 4 5 6 7 8 9 10 11 12 13 14 15 16 17 18 19 20 21 22 23
000
FTUS44 KTSA 020500
TAFRVS
TAF
KRVS 020520Z 0206/0306 00000KT P6SM SKC
     FM021000 00000KT 4SM BR SCT250
     FM021400 09006KT P6SM SCT250
     FM030000 VRB03KT P6SM SCT250=

USA.gov is the U.S. government's official web portal to all federal, state and local government web resources and services.